createdAt,value
2022-07-26T00:01:48.845Z,58.00
2022-07-26T00:04:16.929Z,57.77
2022-07-26T00:06:44.833Z,58.38
2022-07-26T00:09:37.597Z,58.32
2022-07-26T00:15:46.339Z,58.93
2022-07-26T00:18:15.450Z,58.94
2022-07-26T00:21:07.668Z,58.83
2022-07-26T00:23:36.230Z,59.17
2022-07-26T00:26:03.816Z,59.25
2022-07-26T00:28:31.590Z,59.39
2022-07-26T00:30:58.998Z,59.30
2022-07-26T00:33:27.318Z,59.41
2022-07-26T00:35:54.388Z,59.68
2022-07-26T00:38:21.529Z,59.79
2022-07-26T00:40:48.524Z,59.88
2022-07-26T00:43:15.645Z,60.15
2022-07-26T00:46:08.045Z,59.20
2022-07-26T00:48:35.793Z,59.88
2022-07-26T00:51:03.196Z,60.17
2022-07-26T00:53:33.786Z,60.44
2022-07-26T00:56:01.597Z,60.13
2022-07-26T00:58:28.874Z,59.87
2022-07-26T01:00:56.604Z,59.51
2022-07-26T01:03:24.049Z,59.46
2022-07-26T01:05:58.798Z,59.14
2022-07-26T01:08:26.366Z,59.07
2022-07-26T01:10:55.133Z,59.07
2022-07-26T01:13:24.984Z,59.22
2022-07-26T01:15:53.413Z,59.28
2022-07-26T01:18:20.894Z,59.10
2022-07-26T01:20:53.681Z,59.49
2022-07-26T01:23:46.046Z,59.27
2022-07-26T01:26:14.526Z,58.91
2022-07-26T01:28:43.208Z,59.03
2022-07-26T01:31:12.361Z,58.91
2022-07-26T01:33:41.444Z,59.66
2022-07-26T01:36:09.261Z,59.16
2022-07-26T01:38:36.255Z,58.93
2022-07-26T01:41:03.393Z,59.29
2022-07-26T01:43:30.411Z,59.22
2022-07-26T01:45:58.163Z,58.99
2022-07-26T01:48:26.634Z,59.08
2022-07-26T01:50:54.573Z,59.13
2022-07-26T01:53:24.599Z,59.09
2022-07-26T01:55:52.811Z,58.93
2022-07-26T01:58:22.571Z,58.82
2022-07-26T02:00:51.004Z,58.52
2022-07-26T02:03:19.022Z,58.90
2022-07-26T02:05:46.951Z,59.42
2022-07-26T02:08:14.587Z,59.25
2022-07-26T02:11:02.573Z,59.41
2022-07-26T02:13:37.119Z,59.19
2022-07-26T02:16:06.792Z,59.32
2022-07-26T02:18:34.829Z,59.54
2022-07-26T02:21:03.392Z,59.83
2022-07-26T02:23:31.166Z,59.86
2022-07-26T02:25:58.982Z,59.63
2022-07-26T02:28:28.032Z,59.68
2022-07-26T02:30:55.973Z,59.89
2022-07-26T02:33:24.489Z,59.89
2022-07-26T02:35:51.604Z,60.41
2022-07-26T02:38:18.715Z,60.23
2022-07-26T02:40:47.183Z,60.29
2022-07-26T02:43:14.601Z,60.49
2022-07-26T02:48:33.868Z,59.82
2022-07-26T02:51:01.494Z,59.66
2022-07-26T02:53:32.392Z,59.98
2022-07-26T02:56:01.083Z,60.07
2022-07-26T02:58:28.325Z,60.13
2022-07-26T03:00:55.873Z,59.77
2022-07-26T03:03:25.837Z,59.90
2022-07-26T03:05:53.556Z,59.52
2022-07-26T03:08:21.298Z,59.72
2022-07-26T03:10:48.962Z,59.78
2022-07-26T03:13:16.728Z,60.23
2022-07-26T03:15:44.455Z,59.77
2022-07-26T03:18:12.582Z,59.40
2022-07-26T03:21:04.509Z,60.33
2022-07-26T03:23:33.818Z,59.85
2022-07-26T03:26:02.625Z,59.89
2022-07-26T03:28:32.821Z,60.36
2022-07-26T03:31:01.214Z,60.59
2022-07-26T03:33:29.827Z,61.15
2022-07-26T03:35:56.970Z,60.77
2022-07-26T03:38:25.074Z,60.83
2022-07-26T03:40:52.610Z,60.88
2022-07-26T03:43:23.254Z,60.54
2022-07-26T03:45:54.751Z,61.33
2022-07-26T03:48:22.865Z,62.28
2022-07-26T03:50:50.104Z,62.13
2022-07-26T03:53:17.168Z,62.62
2022-07-26T03:56:03.486Z,63.20
2022-07-26T03:58:31.076Z,63.28
2022-07-26T04:01:29.499Z,63.28
2022-07-26T04:03:57.500Z,63.51
2022-07-26T04:06:50.509Z,62.91
2022-07-26T04:09:22.716Z,65.06
2022-07-26T04:12:40.679Z,65.03
2022-07-26T04:15:09.721Z,65.55
2022-07-26T04:17:41.487Z,64.77
2022-07-26T04:20:11.764Z,65.03
2022-07-26T04:22:45.205Z,65.46
2022-07-26T04:25:13.192Z,65.68
2022-07-26T04:27:40.554Z,65.34
2022-07-26T04:30:14.412Z,64.87
2022-07-26T04:33:07.390Z,65.52
2022-07-26T04:35:35.877Z,65.46
2022-07-26T04:38:04.345Z,65.90
2022-07-26T04:40:40.837Z,66.51
2022-07-26T04:43:33.771Z,67.10
2022-07-26T04:46:01.863Z,67.42
2022-07-26T04:48:30.097Z,67.43
2022-07-26T04:50:57.683Z,67.56
2022-07-26T04:53:25.006Z,67.66
2022-07-26T04:55:52.547Z,68.08
2022-07-26T04:58:19.771Z,67.96
2022-07-26T05:01:09.067Z,68.85
2022-07-26T05:04:00.047Z,68.76
2022-07-26T05:06:52.158Z,68.91
2022-07-26T05:09:44.190Z,68.90
2022-07-26T05:13:04.157Z,69.08
2022-07-26T05:15:56.390Z,69.39
2022-07-26T05:21:15.617Z,69.73
2022-07-26T05:23:43.537Z,69.94
2022-07-26T05:26:12.409Z,69.88
2022-07-26T05:28:40.179Z,70.16
2022-07-26T05:31:10.907Z,70.01
2022-07-26T05:33:38.320Z,69.10
2022-07-26T05:36:05.549Z,69.06
2022-07-26T05:38:32.637Z,69.20
2022-07-26T05:41:25.284Z,69.74
2022-07-26T05:43:52.910Z,69.80
2022-07-26T05:46:20.608Z,70.16
2022-07-26T05:48:48.357Z,69.90
2022-07-26T05:51:15.703Z,69.50
2022-07-26T05:53:42.966Z,68.98
2022-07-26T05:56:10.551Z,68.50
2022-07-26T05:59:03.258Z,67.52
2022-07-26T06:01:56.929Z,67.87
2022-07-26T06:04:26.986Z,68.40
2022-07-26T06:06:55.822Z,68.11
2022-07-26T06:09:48.931Z,67.55
2022-07-26T06:15:14.970Z,66.10
2022-07-26T06:17:43.588Z,66.53
2022-07-26T06:20:12.423Z,64.86
2022-07-26T06:22:40.107Z,65.48
2022-07-26T06:25:08.607Z,65.64
2022-07-26T06:30:29.868Z,64.41
2022-07-26T06:32:58.348Z,63.98
2022-07-26T06:35:29.373Z,64.00
2022-07-26T06:38:00.815Z,63.88
2022-07-26T06:40:28.110Z,63.51
2022-07-26T06:42:55.220Z,63.47
2022-07-26T06:48:47.375Z,60.45
2022-07-26T06:51:21.160Z,57.50
2022-07-26T06:53:48.473Z,59.51
2022-07-26T06:56:18.719Z,60.85
2022-07-26T06:58:47.746Z,59.85
2022-07-26T07:01:58.084Z,59.20
2022-07-26T07:04:30.156Z,57.60
2022-07-26T07:07:05.129Z,57.64
2022-07-26T07:09:34.185Z,58.40
2022-07-26T07:12:29.056Z,55.30
2022-07-26T07:14:56.304Z,55.81
2022-07-26T07:17:23.688Z,53.94
2022-07-26T07:19:51.332Z,54.89
2022-07-26T07:22:18.821Z,54.59
2022-07-26T07:24:46.752Z,57.79
2022-07-26T07:27:16.173Z,57.17
2022-07-26T07:29:44.086Z,56.38
2022-07-26T07:32:18.139Z,51.91
2022-07-26T07:34:48.990Z,55.70
2022-07-26T07:37:17.883Z,53.86
2022-07-26T07:39:50.430Z,52.55
2022-07-26T07:42:19.537Z,51.25
2022-07-26T07:44:47.336Z,47.74
2022-07-26T07:48:05.739Z,47.77
2022-07-26T07:50:35.455Z,50.27
2022-07-26T07:53:27.851Z,50.06
2022-07-26T07:55:59.490Z,52.06
2022-07-26T07:58:27.989Z,54.00
2022-07-26T08:04:11.865Z,48.71
2022-07-26T08:06:41.331Z,46.14
2022-07-26T08:09:35.953Z,46.73
2022-07-26T08:12:29.017Z,48.23
2022-07-26T08:15:07.378Z,50.87
2022-07-26T08:17:40.381Z,48.19
2022-07-26T08:20:15.965Z,46.92
2022-07-26T08:22:43.849Z,49.23
2022-07-26T08:25:35.849Z,48.98
2022-07-26T08:28:47.259Z,47.02
2022-07-26T08:31:40.378Z,43.06
2022-07-26T08:34:34.750Z,48.76
2022-07-26T08:37:16.400Z,45.01
2022-07-26T08:39:45.527Z,45.69
2022-07-26T08:42:23.291Z,45.66
2022-07-26T08:44:52.135Z,44.65
2022-07-26T08:47:38.077Z,44.56
2022-07-26T08:50:14.694Z,41.59
2022-07-26T08:52:42.809Z,42.15
2022-07-26T08:55:16.212Z,46.14
2022-07-26T08:57:43.553Z,47.45
2022-07-26T09:00:25.770Z,45.64
2022-07-26T09:02:54.155Z,41.88
2022-07-26T09:06:11.855Z,46.33
2022-07-26T09:08:39.914Z,45.72
2022-07-26T09:11:26.359Z,44.62
2022-07-26T09:14:07.767Z,45.48
2022-07-26T09:17:00.543Z,43.67
2022-07-26T09:19:29.376Z,39.83
2022-07-26T09:22:10.124Z,40.14
2022-07-26T09:24:44.161Z,40.71
2022-07-26T09:27:15.664Z,43.64
2022-07-26T09:30:58.681Z,42.01
2022-07-26T09:33:27.393Z,34.48
2022-07-26T09:36:03.065Z,38.48
2022-07-26T09:38:43.180Z,40.55
2022-07-26T09:41:21.010Z,40.73
2022-07-26T09:43:53.684Z,38.62
2022-07-26T09:46:26.344Z,39.12
2022-07-26T09:49:11.885Z,31.06
2022-07-26T09:52:08.673Z,35.77
2022-07-26T09:55:01.488Z,38.04
2022-07-26T09:57:54.938Z,35.35
2022-07-26T10:01:39.529Z,34.69
2022-07-26T10:04:32.606Z,32.06
2022-07-26T10:07:03.239Z,33.23
2022-07-26T10:09:41.206Z,30.10
2022-07-26T10:15:04.906Z,33.09
2022-07-26T10:17:39.181Z,34.53
2022-07-26T10:23:47.153Z,33.20
2022-07-26T10:26:36.401Z,36.23
2022-07-26T10:32:40.192Z,31.48
2022-07-26T10:35:31.263Z,33.03
2022-07-26T10:38:10.239Z,32.53
2022-07-26T10:40:40.006Z,33.60
2022-07-26T10:43:37.743Z,35.43
2022-07-26T10:46:23.981Z,32.85
2022-07-26T10:49:04.295Z,36.25
2022-07-26T10:51:40.206Z,36.13
2022-07-26T10:54:12.177Z,33.11
2022-07-26T10:56:41.149Z,37.19
2022-07-26T10:59:08.713Z,37.38
2022-07-26T11:01:42.215Z,37.46
2022-07-26T11:04:21.054Z,34.00
2022-07-26T11:06:48.374Z,35.70
2022-07-26T11:09:18.603Z,32.66
2022-07-26T11:11:48.975Z,36.12
2022-07-26T11:14:47.939Z,36.03
2022-07-26T11:17:30.389Z,34.75
2022-07-26T11:19:59.061Z,33.73
2022-07-26T11:22:36.699Z,34.02
2022-07-26T11:25:05.638Z,34.43
2022-07-26T11:27:37.195Z,34.75
2022-07-26T11:33:22.506Z,36.03
2022-07-26T11:35:52.973Z,31.66
2022-07-26T11:38:20.799Z,38.97
2022-07-26T11:40:48.215Z,39.77
2022-07-26T11:43:16.026Z,37.74
2022-07-26T11:45:51.800Z,35.90
2022-07-26T11:48:50.493Z,38.10
2022-07-26T11:51:20.688Z,38.63
2022-07-26T11:54:13.500Z,40.65
2022-07-26T11:56:56.120Z,41.70
2022-07-26T11:59:49.043Z,38.38
2022-07-26T12:02:16.801Z,38.60
2022-07-26T12:04:45.037Z,38.53
2022-07-26T12:07:20.428Z,39.91
2022-07-26T12:09:48.017Z,38.57
2022-07-26T12:12:42.879Z,38.34
2022-07-26T12:15:35.774Z,39.38
2022-07-26T12:18:04.451Z,39.26
2022-07-26T12:20:31.669Z,39.04
2022-07-26T12:23:05.518Z,40.85
2022-07-26T12:25:33.714Z,38.48
2022-07-26T12:28:01.245Z,39.58
2022-07-26T12:33:27.056Z,42.06
2022-07-26T12:36:01.233Z,43.34
2022-07-26T12:41:40.532Z,43.41
2022-07-26T12:44:13.173Z,42.91
2022-07-26T12:46:41.477Z,42.02
2022-07-26T12:49:08.992Z,44.14
2022-07-26T12:51:37.552Z,42.61
2022-07-26T12:54:06.752Z,43.59
2022-07-26T12:56:35.095Z,44.35
2022-07-26T12:59:02.446Z,44.60
2022-07-26T13:01:55.353Z,44.60
2022-07-26T13:04:22.986Z,44.86
2022-07-26T13:06:50.317Z,44.77
2022-07-26T13:09:17.774Z,45.39
2022-07-26T13:11:45.188Z,45.34
2022-07-26T13:14:38.626Z,45.39
2022-07-26T13:17:32.429Z,45.96
2022-07-26T13:20:00.936Z,45.83
2022-07-26T13:22:29.226Z,44.95
2022-07-26T13:25:22.787Z,44.00
2022-07-26T13:27:52.241Z,44.06
2022-07-26T13:31:09.344Z,45.29
2022-07-26T13:33:39.566Z,44.59
2022-07-26T13:36:06.905Z,44.35
2022-07-26T13:38:34.897Z,44.35
2022-07-26T13:41:06.826Z,44.49
2022-07-26T13:44:00.254Z,45.56
2022-07-26T13:46:33.516Z,45.96
2022-07-26T13:49:04.899Z,46.18
2022-07-26T13:51:53.215Z,46.45
2022-07-26T13:54:23.687Z,46.34
2022-07-26T13:56:51.856Z,45.68
2022-07-26T13:59:45.719Z,45.36
2022-07-26T14:02:13.399Z,45.52
2022-07-26T14:04:41.038Z,46.56
2022-07-26T14:07:08.464Z,45.93
2022-07-26T14:09:39.107Z,45.91
2022-07-26T14:12:07.256Z,45.64
2022-07-26T14:14:36.326Z,45.93
2022-07-26T14:17:04.682Z,46.80
2022-07-26T14:19:32.111Z,46.47
2022-07-26T14:22:00.658Z,46.29
2022-07-26T14:24:29.312Z,46.63
2022-07-26T14:27:22.696Z,48.40
2022-07-26T14:30:40.646Z,48.56
2022-07-26T14:33:33.393Z,48.12
2022-07-26T14:36:02.950Z,49.00
2022-07-26T14:38:31.640Z,48.00
2022-07-26T14:41:02.348Z,48.33
2022-07-26T14:43:30.477Z,48.71
2022-07-26T14:45:58.516Z,48.40
2022-07-26T14:48:52.787Z,48.81
2022-07-26T14:51:14.579Z,49.18
2022-07-26T14:54:08.836Z,48.83
2022-07-26T14:56:37.444Z,49.09
2022-07-26T14:59:32.883Z,49.20
2022-07-26T15:02:05.489Z,49.19
2022-07-26T15:04:33.753Z,48.92
2022-07-26T15:07:00.856Z,49.73
2022-07-26T15:09:28.806Z,49.38
2022-07-26T15:11:55.955Z,49.63
2022-07-26T15:14:24.411Z,49.65
2022-07-26T15:16:51.748Z,49.61
2022-07-26T15:19:25.373Z,49.44
2022-07-26T15:21:55.346Z,49.55
2022-07-26T15:24:24.316Z,49.71
2022-07-26T15:26:52.166Z,50.00
2022-07-26T15:29:20.751Z,50.07
2022-07-26T15:31:49.319Z,50.20
2022-07-26T15:34:41.700Z,49.54
2022-07-26T15:40:01.992Z,50.59
2022-07-26T15:42:36.381Z,50.72
2022-07-26T15:45:09.536Z,49.99
2022-07-26T15:48:03.167Z,49.30
2022-07-26T15:50:53.178Z,50.14
2022-07-26T15:56:37.119Z,50.91
2022-07-26T15:59:07.356Z,50.41
2022-07-26T16:01:35.889Z,50.02
2022-07-26T16:04:05.157Z,50.13
2022-07-26T16:06:33.867Z,50.21
2022-07-26T16:09:26.157Z,50.22
2022-07-26T16:11:53.753Z,50.29
2022-07-26T16:14:25.941Z,50.46
2022-07-26T16:16:54.351Z,51.07
2022-07-26T16:19:21.989Z,50.17
2022-07-26T16:21:50.607Z,50.80
2022-07-26T16:24:19.330Z,50.49
2022-07-26T16:27:12.147Z,50.71
2022-07-26T16:29:41.972Z,51.19
2022-07-26T16:32:11.957Z,50.88
2022-07-26T16:34:40.937Z,51.86
2022-07-26T16:37:08.195Z,51.85
2022-07-26T16:39:35.197Z,51.42
2022-07-26T16:42:06.799Z,51.62
2022-07-26T16:44:36.595Z,51.77
2022-07-26T16:47:05.076Z,51.49
2022-07-26T16:49:33.853Z,51.92
2022-07-26T16:52:01.163Z,51.74
2022-07-26T16:54:28.765Z,51.21
2022-07-26T16:56:57.998Z,51.16
2022-07-26T16:59:50.179Z,51.30
2022-07-26T17:02:18.599Z,50.96
2022-07-26T17:04:46.384Z,51.50
2022-07-26T17:07:29.133Z,51.70
2022-07-26T17:09:57.232Z,51.54
2022-07-26T17:12:52.837Z,51.80
2022-07-26T17:18:16.848Z,51.94
2022-07-26T17:21:08.443Z,52.13
2022-07-26T17:23:36.734Z,52.39
2022-07-26T17:26:06.224Z,52.19
2022-07-26T17:28:34.554Z,52.93
2022-07-26T17:31:02.126Z,53.73
2022-07-26T17:33:30.226Z,53.51
2022-07-26T17:36:02.164Z,53.29
2022-07-26T17:38:31.805Z,52.84
2022-07-26T17:40:58.740Z,52.99
2022-07-26T17:43:36.752Z,52.63
2022-07-26T17:46:05.570Z,52.87
2022-07-26T17:48:33.902Z,52.91
2022-07-26T17:51:01.209Z,52.65
2022-07-26T17:54:18.223Z,53.08
2022-07-26T17:56:46.085Z,53.82
2022-07-26T17:59:14.615Z,53.98
2022-07-26T18:02:08.215Z,53.27
2022-07-26T18:04:36.492Z,52.56
2022-07-26T18:07:03.771Z,52.61
2022-07-26T18:09:31.207Z,52.13
2022-07-26T18:11:59.174Z,52.46
2022-07-26T18:14:51.063Z,52.75
2022-07-26T18:17:18.973Z,52.88
2022-07-26T18:19:46.540Z,52.62
2022-07-26T18:22:14.579Z,52.61
2022-07-26T18:25:07.986Z,52.69
2022-07-26T18:27:40.678Z,52.62
2022-07-26T18:30:10.979Z,52.43
2022-07-26T18:32:39.525Z,52.28
2022-07-26T18:35:08.422Z,52.40
2022-07-26T18:37:35.610Z,52.11
2022-07-26T18:40:02.653Z,52.42
2022-07-26T18:42:29.806Z,52.30
2022-07-26T18:44:57.471Z,52.23
2022-07-26T18:47:26.735Z,52.21
2022-07-26T18:49:54.375Z,52.19
2022-07-26T18:52:28.666Z,52.07
2022-07-26T18:55:24.962Z,52.03
2022-07-26T18:57:52.882Z,51.37
2022-07-26T19:00:22.824Z,51.63
2022-07-26T19:02:52.374Z,51.63
2022-07-26T19:05:24.227Z,51.67
2022-07-26T19:07:52.704Z,51.59
2022-07-26T19:10:20.416Z,51.89
2022-07-26T19:12:48.861Z,51.88
2022-07-26T19:15:16.922Z,52.07
2022-07-26T19:17:45.310Z,51.93
2022-07-26T19:20:36.999Z,51.58
2022-07-26T19:23:31.299Z,51.99
2022-07-26T19:26:24.543Z,51.96
2022-07-26T19:28:51.862Z,51.67
2022-07-26T19:31:20.271Z,51.96
2022-07-26T19:33:48.244Z,51.51
2022-07-26T19:36:18.199Z,51.40
2022-07-26T19:38:53.125Z,51.64
2022-07-26T19:41:20.164Z,51.58
2022-07-26T19:43:47.812Z,51.73
2022-07-26T19:46:15.474Z,51.90
2022-07-26T19:48:43.649Z,51.57
2022-07-26T19:51:11.141Z,52.31
2022-07-26T19:56:55.186Z,52.35
2022-07-26T19:59:48.467Z,52.12
2022-07-26T20:02:16.773Z,52.50
2022-07-26T20:04:46.256Z,52.40
2022-07-26T20:07:19.862Z,52.47
2022-07-26T20:09:48.616Z,52.50
2022-07-26T20:12:43.058Z,52.26
2022-07-26T20:15:12.256Z,52.71
2022-07-26T20:17:41.457Z,53.00
2022-07-26T20:20:10.412Z,52.57
2022-07-26T20:22:38.432Z,52.56
2022-07-26T20:25:07.527Z,52.35
2022-07-26T20:27:37.370Z,52.92
2022-07-26T20:30:06.891Z,52.95
2022-07-26T20:32:34.218Z,53.15
2022-07-26T20:35:01.970Z,52.97
2022-07-26T20:37:29.038Z,52.84
2022-07-26T20:39:56.240Z,52.63
2022-07-26T20:42:23.649Z,52.73
2022-07-26T20:44:53.053Z,53.08
2022-07-26T20:47:45.256Z,52.84
2022-07-26T20:50:13.266Z,53.25
2022-07-26T20:53:30.157Z,53.07
2022-07-26T20:56:22.695Z,53.25
2022-07-26T20:58:50.380Z,52.97
2022-07-26T21:01:17.995Z,53.34
2022-07-26T21:03:45.407Z,53.30
2022-07-26T21:06:13.091Z,53.74
2022-07-26T21:08:41.910Z,53.67
2022-07-26T21:11:08.933Z,53.40
2022-07-26T21:13:36.928Z,53.34
2022-07-26T21:16:04.643Z,53.61
2022-07-26T21:18:38.555Z,53.63
2022-07-26T21:21:06.646Z,53.84
2022-07-26T21:23:34.762Z,54.12
2022-07-26T21:26:26.893Z,54.11
2022-07-26T21:28:54.398Z,53.99
2022-07-26T21:31:23.979Z,54.12
2022-07-26T21:34:16.174Z,54.34
2022-07-26T21:36:43.876Z,53.90
2022-07-26T21:39:11.755Z,54.08
2022-07-26T21:41:40.263Z,54.07
2022-07-26T21:44:07.218Z,54.43
2022-07-26T21:46:35.385Z,54.29
2022-07-26T21:49:03.554Z,54.19
2022-07-26T21:51:31.419Z,53.96
2022-07-26T21:54:22.914Z,54.16
2022-07-26T21:56:51.002Z,54.11
2022-07-26T21:59:43.226Z,54.08
2022-07-26T22:02:11.228Z,54.01
2022-07-26T22:04:38.872Z,54.20
2022-07-26T22:07:06.826Z,54.01
2022-07-26T22:09:34.848Z,54.42
2022-07-26T22:12:02.258Z,54.04
2022-07-26T22:14:53.955Z,54.16
2022-07-26T22:17:21.992Z,54.22
2022-07-26T22:19:49.457Z,54.40
2022-07-26T22:22:17.573Z,54.38
2022-07-26T22:24:45.029Z,54.47
2022-07-26T22:27:13.213Z,54.37
2022-07-26T22:29:40.741Z,54.13
2022-07-26T22:32:08.944Z,54.35
2022-07-26T22:34:36.583Z,54.05
2022-07-26T22:37:29.355Z,54.39
2022-07-26T22:39:56.782Z,54.35
2022-07-26T22:42:23.756Z,54.49
2022-07-26T22:44:50.849Z,54.78
2022-07-26T22:47:55.796Z,54.38
2022-07-26T22:50:49.540Z,54.33
2022-07-26T22:54:31.944Z,54.66
2022-07-26T22:56:59.917Z,54.32
2022-07-26T22:59:52.143Z,54.23
2022-07-26T23:02:20.207Z,54.27
2022-07-26T23:04:47.579Z,54.41
2022-07-26T23:07:15.282Z,54.31
2022-07-26T23:09:46.327Z,54.35
2022-07-26T23:12:13.539Z,54.41
2022-07-26T23:15:07.372Z,54.20
2022-07-26T23:17:37.760Z,54.38
2022-07-26T23:20:30.433Z,54.03
2022-07-26T23:22:58.003Z,54.24
2022-07-26T23:25:25.365Z,54.33
2022-07-26T23:27:53.572Z,55.03
2022-07-26T23:30:45.770Z,54.90
2022-07-26T23:33:19.365Z,54.28
2022-07-26T23:36:07.450Z,54.42
2022-07-26T23:38:35.069Z,54.14
2022-07-26T23:41:01.971Z,54.77
2022-07-26T23:43:29.101Z,54.87
2022-07-26T23:45:57.386Z,54.70
2022-07-26T23:48:25.108Z,54.58
2022-07-26T23:50:53.248Z,54.86
2022-07-26T23:56:37.140Z,55.14
2022-07-26T23:59:06.132Z,54.92
